createdAt,value
2022-10-20T00:00:33.128Z,100932.06
2022-10-20T00:03:00.946Z,100943.06
2022-10-20T00:05:28.564Z,100942.06
2022-10-20T00:07:56.143Z,100942.41
2022-10-20T00:10:23.723Z,100933.06
2022-10-20T00:12:51.442Z,100929.19
2022-10-20T00:15:22.803Z,100915.03
2022-10-20T00:17:51.727Z,100909.34
2022-10-20T00:20:19.492Z,100919.34
2022-10-20T00:22:47.252Z,100914.84
2022-10-20T00:25:15.873Z,100909.19
2022-10-20T00:27:44.025Z,100916.84
2022-10-20T00:30:12.305Z,100925.66
2022-10-20T00:32:39.895Z,100920.16
2022-10-20T00:35:10.045Z,100914.63
2022-10-20T00:37:37.647Z,100916.63
2022-10-20T00:40:05.933Z,100910.81
2022-10-20T00:42:33.792Z,100910.63
2022-10-20T00:45:02.391Z,100908.31
2022-10-20T00:47:38.833Z,100907.81
2022-10-20T00:50:12.887Z,100904.81
2022-10-20T00:52:42.496Z,100908.81
2022-10-20T00:55:12.869Z,100897.78
2022-10-20T00:57:41.593Z,100884.28
2022-10-20T01:00:10.187Z,100883.56
2022-10-20T01:02:37.927Z,100874.59
2022-10-20T01:05:06.953Z,100871.78
2022-10-20T01:07:36.083Z,100869.06
2022-10-20T01:10:05.678Z,100873.56
2022-10-20T01:12:39.925Z,100864.50
2022-10-20T01:15:15.429Z,100856.19
2022-10-20T01:17:55.465Z,100864.34
2022-10-20T01:20:44.600Z,100874.19
2022-10-20T01:23:42.334Z,100873.19
2022-10-20T01:26:27.866Z,100870.50
2022-10-20T01:29:00.058Z,100872.16
2022-10-20T01:31:33.042Z,100867.00
2022-10-20T01:34:09.446Z,100866.84
2022-10-20T01:36:40.812Z,100867.16
2022-10-20T01:39:13.923Z,100857.53
2022-10-20T01:41:45.786Z,100864.34
2022-10-20T01:44:17.988Z,100864.84
2022-10-20T01:46:46.301Z,100858.16
2022-10-20T01:49:15.718Z,100851.50
2022-10-20T01:51:43.462Z,100841.81
2022-10-20T01:54:21.739Z,100839.16
2022-10-20T01:57:00.970Z,100842.31
2022-10-20T01:59:58.621Z,100831.66
2022-10-20T02:02:38.248Z,100828.13
2022-10-20T02:05:19.734Z,100821.47
2022-10-20T02:07:47.419Z,100821.47
2022-10-20T02:10:20.139Z,100817.63
2022-10-20T02:12:52.064Z,100818.97
2022-10-20T02:15:25.847Z,100802.31
2022-10-20T02:17:59.953Z,100809.81
2022-10-20T02:20:28.178Z,100807.00
2022-10-20T02:22:57.289Z,100811.50
2022-10-20T02:25:26.374Z,100816.63
2022-10-20T02:27:55.711Z,100805.63
2022-10-20T02:30:27.862Z,100813.31
2022-10-20T02:32:55.509Z,100813.44
2022-10-20T02:35:31.004Z,100796.91
2022-10-20T02:37:59.590Z,100804.06
2022-10-20T02:40:27.478Z,100801.94
2022-10-20T02:42:55.185Z,100807.75
2022-10-20T02:45:22.887Z,100798.59
2022-10-20T02:47:51.839Z,100785.75
2022-10-20T02:50:19.602Z,100799.72
2022-10-20T02:52:47.190Z,100802.25
2022-10-20T02:55:15.027Z,100797.25
2022-10-20T02:57:42.651Z,100800.41
2022-10-20T03:00:11.563Z,100806.75
2022-10-20T03:03:02.634Z,100809.41
2022-10-20T03:05:31.624Z,100812.41
2022-10-20T03:07:59.243Z,100814.56
2022-10-20T03:10:27.004Z,100800.88
2022-10-20T03:12:54.635Z,100800.66
2022-10-20T03:15:22.195Z,100804.66
2022-10-20T03:17:49.831Z,100800.63
2022-10-20T03:20:17.655Z,100811.25
2022-10-20T03:22:46.634Z,100802.97
2022-10-20T03:25:14.285Z,100802.31
2022-10-20T03:27:41.901Z,100799.31
2022-10-20T03:30:10.300Z,100792.00
2022-10-20T03:32:38.353Z,100785.63
2022-10-20T03:35:06.892Z,100768.66
2022-10-20T03:37:34.458Z,100768.66
2022-10-20T03:40:03.469Z,100769.47
2022-10-20T03:42:31.083Z,100759.19
2022-10-20T03:44:58.933Z,100755.19
2022-10-20T03:47:26.623Z,100752.50
2022-10-20T03:49:54.335Z,100753.50
2022-10-20T03:52:22.000Z,100756.66
2022-10-20T03:54:49.699Z,100748.16
2022-10-20T03:57:18.704Z,100748.16
2022-10-20T03:59:46.334Z,100746.47
2022-10-20T04:02:27.196Z,100746.13
2022-10-20T04:04:54.754Z,100741.66
2022-10-20T04:07:22.347Z,100738.00
2022-10-20T04:09:49.972Z,100750.97
2022-10-20T04:12:18.943Z,100750.47
2022-10-20T04:14:46.641Z,100750.63
2022-10-20T04:17:14.306Z,100752.13
2022-10-20T04:19:43.264Z,100754.94
2022-10-20T04:22:10.889Z,100756.91
2022-10-20T04:24:38.521Z,100753.25
2022-10-20T04:27:06.282Z,100739.78
2022-10-20T04:29:35.497Z,100730.63
2022-10-20T04:32:05.357Z,100715.31
2022-10-20T04:34:35.551Z,100699.69
2022-10-20T04:37:03.538Z,100700.03
2022-10-20T04:39:31.208Z,100705.03
2022-10-20T04:41:59.791Z,100711.66
2022-10-20T04:44:27.444Z,100711.97
2022-10-20T04:46:56.491Z,100713.66
2022-10-20T04:49:24.231Z,100706.03
2022-10-20T04:51:51.814Z,100713.03
2022-10-20T04:54:19.475Z,100709.31
2022-10-20T04:56:47.052Z,100706.31
2022-10-20T04:59:14.629Z,100706.31
2022-10-20T05:01:42.428Z,100703.63
2022-10-20T05:04:12.020Z,100713.97
2022-10-20T05:06:39.855Z,100704.31
2022-10-20T05:09:08.110Z,100682.00
2022-10-20T05:11:37.468Z,100680.66
2022-10-20T05:14:05.353Z,100671.16
2022-10-20T05:16:33.014Z,100657.84
2022-10-20T05:19:00.647Z,100649.38
2022-10-20T05:21:31.273Z,100651.69
2022-10-20T05:24:00.865Z,100663.03
2022-10-20T05:26:32.381Z,100658.69
2022-10-20T05:28:59.939Z,100669.34
2022-10-20T05:31:28.196Z,100670.84
2022-10-20T05:33:57.140Z,100677.47
2022-10-20T05:36:26.958Z,100672.94
2022-10-20T05:38:56.881Z,100665.34
2022-10-20T05:41:26.205Z,100657.34
2022-10-20T05:43:57.154Z,100653.84
2022-10-20T05:46:26.779Z,100654.97
2022-10-20T05:48:56.365Z,100657.97
2022-10-20T05:51:25.625Z,100655.31
2022-10-20T05:53:55.548Z,100652.97
2022-10-20T05:56:25.150Z,100655.47
2022-10-20T05:58:52.787Z,100654.94
2022-10-20T06:01:24.314Z,100648.63
2022-10-20T06:03:53.742Z,100648.91
2022-10-20T06:06:23.978Z,100659.03
2022-10-20T06:08:52.084Z,100654.38
2022-10-20T06:11:25.028Z,100649.44
2022-10-20T06:13:53.343Z,100652.28
2022-10-20T06:16:23.072Z,100665.91
2022-10-20T06:18:51.076Z,100666.59
2022-10-20T06:21:21.158Z,100676.41
2022-10-20T06:23:49.457Z,100691.91
2022-10-20T06:26:19.725Z,100691.25
2022-10-20T06:28:49.927Z,100701.06
2022-10-20T06:31:18.993Z,100707.72
2022-10-20T06:33:47.270Z,100720.06
2022-10-20T06:36:15.427Z,100703.22
2022-10-20T06:38:43.482Z,100713.88
2022-10-20T06:41:12.512Z,100712.75
2022-10-20T06:43:40.111Z,100717.41
2022-10-20T06:46:12.030Z,100742.75
2022-10-20T06:48:43.117Z,100735.13
2022-10-20T06:51:12.763Z,100739.22
2022-10-20T06:53:42.784Z,100732.06
2022-10-20T06:56:15.161Z,100728.41
2022-10-20T06:58:44.597Z,100732.91
2022-10-20T07:01:15.748Z,100729.91
2022-10-20T07:03:44.938Z,100714.75
2022-10-20T07:06:15.742Z,100705.56
2022-10-20T07:08:43.410Z,100687.75
2022-10-20T07:11:13.634Z,100698.94
2022-10-20T07:13:41.785Z,100686.59
2022-10-20T07:16:11.898Z,100680.94
2022-10-20T07:18:41.422Z,100689.28
2022-10-20T07:21:10.886Z,100700.78
2022-10-20T07:23:38.760Z,100697.78
2022-10-20T07:26:08.229Z,100701.09
2022-10-20T07:28:36.944Z,100721.81
2022-10-20T07:31:05.617Z,100735.63
2022-10-20T07:33:34.393Z,100715.81
2022-10-20T07:36:03.452Z,100714.66
2022-10-20T07:38:31.086Z,100722.81
2022-10-20T07:41:02.507Z,100726.50
2022-10-20T07:43:32.283Z,100721.84
2022-10-20T07:45:59.951Z,100718.19
2022-10-20T07:48:27.673Z,100714.19
2022-10-20T07:50:55.305Z,100704.34
2022-10-20T07:53:24.240Z,100703.34
2022-10-20T07:55:51.813Z,100709.81
2022-10-20T07:58:19.482Z,100710.78
2022-10-20T08:00:47.159Z,100701.44
2022-10-20T08:03:17.201Z,100701.78
2022-10-20T08:05:44.837Z,100703.97
2022-10-20T08:08:12.512Z,100696.44
2022-10-20T08:10:41.459Z,100704.44
2022-10-20T08:13:09.045Z,100712.63
2022-10-20T08:15:36.837Z,100712.00
2022-10-20T08:18:05.136Z,100702.47
2022-10-20T08:20:35.614Z,100716.09
2022-10-20T08:23:03.194Z,100718.44
2022-10-20T08:25:30.837Z,100713.41
2022-10-20T08:27:59.798Z,100704.53
2022-10-20T08:30:27.465Z,100698.00
2022-10-20T08:32:55.277Z,100690.44
2022-10-20T08:35:23.527Z,100674.34
2022-10-20T08:37:51.064Z,100665.75
2022-10-20T08:40:21.339Z,100667.25
2022-10-20T08:42:50.178Z,100684.13
2022-10-20T08:45:21.715Z,100679.69
2022-10-20T08:47:53.117Z,100678.59
2022-10-20T08:50:21.936Z,100678.06
2022-10-20T08:52:54.279Z,100684.53
2022-10-20T08:55:32.698Z,100694.75
2022-10-20T08:58:03.084Z,100696.09
2022-10-20T09:00:33.927Z,100690.47
2022-10-20T09:03:11.278Z,100691.88
2022-10-20T09:05:42.675Z,100694.31
2022-10-20T09:08:10.356Z,100693.81
2022-10-20T09:10:40.911Z,100685.84
2022-10-20T09:13:18.579Z,100681.75
2022-10-20T09:15:48.713Z,100688.25
2022-10-20T09:18:17.184Z,100684.78
2022-10-20T09:20:49.643Z,100685.28
2022-10-20T09:23:39.972Z,100691.22
2022-10-20T09:26:24.884Z,100689.75
2022-10-20T09:29:13.478Z,100699.81
2022-10-20T09:31:45.105Z,100689.91
2022-10-20T09:34:24.721Z,100691.03
2022-10-20T09:36:54.503Z,100689.16
2022-10-20T09:39:24.584Z,100685.56
2022-10-20T09:44:33.303Z,100682.22
2022-10-20T09:47:03.163Z,100677.19
2022-10-20T09:49:34.683Z,100681.34
2022-10-20T09:52:03.808Z,100691.72
2022-10-20T09:54:31.716Z,100685.59
2022-10-20T09:57:06.693Z,100682.34
2022-10-20T09:59:38.307Z,100677.34
2022-10-20T10:02:32.988Z,100680.13
2022-10-20T10:05:20.268Z,100675.91
2022-10-20T10:07:59.633Z,100676.63
2022-10-20T10:10:30.072Z,100673.78
2022-10-20T10:13:01.276Z,100671.56
2022-10-20T10:15:32.462Z,100663.03
2022-10-20T10:18:12.273Z,100664.16
2022-10-20T10:20:40.669Z,100657.59
2022-10-20T10:23:24.003Z,100654.16
2022-10-20T10:25:53.416Z,100643.47
2022-10-20T10:28:28.562Z,100653.81
2022-10-20T10:31:22.318Z,100649.63
2022-10-20T10:33:54.911Z,100653.69
2022-10-20T10:36:32.709Z,100622.34
2022-10-20T10:39:00.622Z,100617.59
2022-10-20T10:41:49.259Z,100619.91
2022-10-20T10:44:24.561Z,100610.66
2022-10-20T10:47:11.044Z,100605.72
2022-10-20T10:49:58.738Z,100625.94
2022-10-20T10:52:37.631Z,100616.06
2022-10-20T10:55:30.622Z,100606.28
2022-10-20T11:00:57.460Z,100608.19
2022-10-20T11:03:45.863Z,100624.16
2022-10-20T11:06:22.813Z,100626.72
2022-10-20T11:09:04.033Z,100621.94
2022-10-20T11:11:42.492Z,100618.78
2022-10-20T11:17:02.090Z,100615.13
2022-10-20T11:20:03.691Z,100609.53
2022-10-20T11:22:42.015Z,100609.91
2022-10-20T11:25:17.609Z,100618.94
2022-10-20T11:27:45.599Z,100611.53
2022-10-20T11:30:18.362Z,100615.44
2022-10-20T11:32:52.817Z,100611.72
2022-10-20T11:35:30.418Z,100605.53
2022-10-20T11:38:13.735Z,100596.13
2022-10-20T11:40:45.979Z,100591.25
2022-10-20T11:43:18.842Z,100598.25
2022-10-20T11:45:51.024Z,100594.78
2022-10-20T11:48:24.752Z,100601.56
2022-10-20T11:54:02.641Z,100609.91
2022-10-20T11:56:46.030Z,100606.41
2022-10-20T11:59:41.596Z,100602.72
2022-10-20T12:02:49.497Z,100608.94
2022-10-20T12:05:32.100Z,100601.97
2022-10-20T12:08:36.161Z,100603.97
2022-10-20T12:11:14.594Z,100596.97
2022-10-20T12:13:56.362Z,100586.75
2022-10-20T12:17:03.727Z,100585.16
2022-10-20T12:19:32.782Z,100574.81
2022-10-20T12:22:02.699Z,100560.41
2022-10-20T12:24:33.159Z,100543.59
2022-10-20T12:27:17.963Z,100545.28
2022-10-20T12:29:54.584Z,100581.91
2022-10-20T12:32:53.628Z,100582.22
2022-10-20T12:36:02.870Z,100586.03
2022-10-20T12:38:31.862Z,100586.91
2022-10-20T12:41:02.071Z,100582.41
2022-10-20T12:43:48.895Z,100582.22
2022-10-20T12:46:23.249Z,100585.72
2022-10-20T12:48:57.367Z,100574.19
2022-10-20T12:51:34.036Z,100568.69
2022-10-20T12:54:06.178Z,100572.63
2022-10-20T12:56:38.644Z,100568.94
2022-10-20T12:59:24.700Z,100562.09
2022-10-20T13:02:27.941Z,100553.59
2022-10-20T13:04:57.941Z,100548.78
2022-10-20T13:08:04.803Z,100556.28
2022-10-20T13:10:35.647Z,100550.28
2022-10-20T13:13:45.847Z,100551.94
2022-10-20T13:16:21.952Z,100543.72
2022-10-20T13:18:51.559Z,100535.41
2022-10-20T13:21:34.115Z,100520.81
2022-10-20T13:24:13.404Z,100513.16
2022-10-20T13:26:49.863Z,100516.47
2022-10-20T13:29:23.980Z,100522.84
2022-10-20T13:32:04.818Z,100512.78
2022-10-20T13:34:42.114Z,100508.44
2022-10-20T13:37:30.256Z,100518.91
2022-10-20T13:40:11.501Z,100503.66
2022-10-20T13:42:49.581Z,100502.44
2022-10-20T13:45:26.461Z,100506.34
2022-10-20T13:48:08.798Z,100509.03
2022-10-20T13:50:39.604Z,100522.19
2022-10-20T13:53:20.618Z,100531.19
2022-10-20T13:55:59.151Z,100532.53
2022-10-20T13:58:27.246Z,100537.44
2022-10-20T14:01:01.453Z,100540.09
2022-10-20T14:03:31.661Z,100542.69
2022-10-20T14:05:59.928Z,100542.03
2022-10-20T14:08:27.766Z,100547.03
2022-10-20T14:10:58.198Z,100545.94
2022-10-20T14:13:28.049Z,100549.97
2022-10-20T14:15:58.062Z,100545.09
2022-10-20T14:18:27.998Z,100526.19
2022-10-20T14:21:00.100Z,100538.91
2022-10-20T14:23:29.425Z,100543.63
2022-10-20T14:25:57.822Z,100540.59
2022-10-20T14:28:27.610Z,100540.59
2022-10-20T14:30:55.372Z,100544.94
2022-10-20T14:33:23.213Z,100546.59
2022-10-20T14:35:54.493Z,100540.66
2022-10-20T14:38:25.732Z,100547.69
2022-10-20T14:40:55.423Z,100537.63
2022-10-20T14:43:31.965Z,100535.97
2022-10-20T14:46:01.794Z,100531.28
2022-10-20T14:48:34.312Z,100524.44
2022-10-20T14:51:02.382Z,100526.19
2022-10-20T14:53:33.877Z,100529.88
2022-10-20T14:56:03.293Z,100535.06
2022-10-20T14:58:37.302Z,100528.28
2022-10-20T15:01:20.360Z,100511.69
2022-10-20T15:03:48.198Z,100492.22
2022-10-20T15:06:18.300Z,100484.75
2022-10-20T15:08:57.805Z,100478.72
2022-10-20T15:11:28.121Z,100469.63
2022-10-20T15:13:59.019Z,100470.28
2022-10-20T15:16:36.210Z,100472.00
2022-10-20T15:19:32.094Z,100462.50
2022-10-20T15:22:02.300Z,100468.88
2022-10-20T15:24:31.295Z,100469.03
2022-10-20T15:27:00.145Z,100467.19
2022-10-20T15:29:28.485Z,100485.56
2022-10-20T15:31:56.784Z,100492.22
2022-10-20T15:34:25.499Z,100491.66
2022-10-20T15:36:53.221Z,100492.97
2022-10-20T15:39:20.805Z,100485.56
2022-10-20T15:41:53.041Z,100474.22
2022-10-20T15:44:23.133Z,100473.50
2022-10-20T15:46:54.137Z,100478.84
2022-10-20T15:49:21.767Z,100479.03
2022-10-20T15:51:50.399Z,100481.31
2022-10-20T15:54:20.239Z,100481.97
2022-10-20T15:56:49.897Z,100473.94
2022-10-20T15:59:17.459Z,100486.47
2022-10-20T16:01:45.106Z,100480.13
2022-10-20T16:04:23.115Z,100474.41
2022-10-20T16:06:52.945Z,100470.06
2022-10-20T16:09:20.806Z,100467.75
2022-10-20T16:11:49.796Z,100474.13
2022-10-20T16:14:17.387Z,100476.78
2022-10-20T16:16:45.746Z,100471.44
2022-10-20T16:19:13.675Z,100465.00
2022-10-20T16:21:41.327Z,100466.09
2022-10-20T16:24:08.957Z,100458.25
2022-10-20T16:26:36.559Z,100454.94
2022-10-20T16:29:05.570Z,100460.94
2022-10-20T16:31:33.176Z,100456.41
2022-10-20T16:34:01.040Z,100453.56
2022-10-20T16:36:28.661Z,100461.75
2022-10-20T16:38:57.306Z,100452.72
2022-10-20T16:41:25.322Z,100450.88
2022-10-20T16:43:55.418Z,100457.59
2022-10-20T16:46:27.785Z,100451.34
2022-10-20T16:48:57.135Z,100459.75
2022-10-20T16:51:24.804Z,100462.44
2022-10-20T16:53:52.512Z,100467.41
2022-10-20T16:56:21.098Z,100472.38
2022-10-20T16:58:49.530Z,100475.72
2022-10-20T17:01:19.114Z,100480.69
2022-10-20T17:03:50.057Z,100478.00
2022-10-20T17:06:19.562Z,100468.13
2022-10-20T17:08:47.244Z,100456.69
2022-10-20T17:11:16.830Z,100445.34
2022-10-20T17:13:44.583Z,100453.19
2022-10-20T17:16:13.985Z,100469.72
2022-10-20T17:18:41.795Z,100475.72
2022-10-20T17:21:11.518Z,100469.72
2022-10-20T17:23:42.924Z,100454.66
2022-10-20T17:26:12.939Z,100434.03
2022-10-20T17:28:40.579Z,100434.38
2022-10-20T17:31:10.314Z,100417.97
2022-10-20T17:33:38.545Z,100411.31
2022-10-20T17:36:07.475Z,100413.34
2022-10-20T17:38:36.884Z,100400.53
2022-10-20T17:41:05.600Z,100391.50
2022-10-20T17:43:33.338Z,100403.84
2022-10-20T17:46:02.855Z,100397.28
2022-10-20T17:48:30.660Z,100413.53
2022-10-20T17:51:02.211Z,100414.75
2022-10-20T17:53:32.309Z,100422.94
2022-10-20T17:56:03.173Z,100429.59
2022-10-20T17:58:30.880Z,100427.75
2022-10-20T18:01:08.906Z,100416.41
2022-10-20T18:03:36.542Z,100399.34
2022-10-20T18:06:08.345Z,100396.66
2022-10-20T18:08:36.135Z,100411.69
2022-10-20T18:11:09.338Z,100416.00
2022-10-20T18:13:37.709Z,100421.00
2022-10-20T18:16:07.385Z,100435.69
2022-10-20T18:18:35.510Z,100435.94
2022-10-20T18:21:03.177Z,100442.97
2022-10-20T18:23:33.185Z,100441.94
2022-10-20T18:26:07.601Z,100443.78
2022-10-20T18:28:36.109Z,100450.16
2022-10-20T18:31:07.769Z,100444.44
2022-10-20T18:33:35.395Z,100419.88
2022-10-20T18:36:04.716Z,100408.53
2022-10-20T18:38:35.352Z,100406.88
2022-10-20T18:41:09.184Z,100398.66
2022-10-20T18:43:37.121Z,100403.19
2022-10-20T18:46:05.947Z,100419.63
2022-10-20T18:48:36.742Z,100419.25
2022-10-20T18:51:05.885Z,100413.06
2022-10-20T18:53:35.739Z,100398.22
2022-10-20T18:56:05.277Z,100399.06
2022-10-20T18:58:38.150Z,100385.22
2022-10-20T19:01:07.779Z,100374.25
2022-10-20T19:03:35.863Z,100382.34
2022-10-20T19:06:05.522Z,100381.91
2022-10-20T19:08:33.506Z,100386.69
2022-10-20T19:11:01.543Z,100379.97
2022-10-20T19:13:30.759Z,100377.56
2022-10-20T19:16:00.921Z,100379.69
2022-10-20T19:18:30.551Z,100363.81
2022-10-20T19:20:59.873Z,100361.25
2022-10-20T19:23:27.639Z,100352.66
2022-10-20T19:26:06.258Z,100346.66
2022-10-20T19:28:35.690Z,100341.31
2022-10-20T19:31:20.548Z,100370.03
2022-10-20T19:33:50.214Z,100385.31
2022-10-20T19:36:17.897Z,100384.13
2022-10-20T19:38:46.068Z,100379.59
2022-10-20T19:41:13.645Z,100375.06
2022-10-20T19:43:41.409Z,100372.84
2022-10-20T19:46:13.432Z,100356.97
2022-10-20T19:48:41.195Z,100360.34
2022-10-20T19:51:09.726Z,100364.66
2022-10-20T19:53:37.851Z,100372.47
2022-10-20T19:56:06.771Z,100360.22
2022-10-20T19:58:36.606Z,100372.19
2022-10-20T20:01:05.283Z,100378.84
2022-10-20T20:03:34.746Z,100394.25
2022-10-20T20:06:05.057Z,100394.63
2022-10-20T20:08:33.164Z,100392.78
2022-10-20T20:11:01.244Z,100387.03
2022-10-20T20:13:28.900Z,100378.84
2022-10-20T20:15:56.767Z,100383.84
2022-10-20T20:18:24.422Z,100377.56
2022-10-20T20:20:53.387Z,100367.06
2022-10-20T20:23:26.021Z,100360.88
2022-10-20T20:26:04.364Z,100365.47
2022-10-20T20:28:32.594Z,100357.09
2022-10-20T20:31:01.798Z,100358.28
2022-10-20T20:33:29.470Z,100358.66
2022-10-20T20:35:59.493Z,100351.91
2022-10-20T20:38:27.741Z,100355.25
2022-10-20T20:40:58.967Z,100352.66
2022-10-20T20:43:26.970Z,100354.78
2022-10-20T20:45:54.618Z,100338.84
2022-10-20T20:48:22.536Z,100344.56
2022-10-20T20:50:54.299Z,100344.94
2022-10-20T20:53:23.744Z,100339.50
2022-10-20T20:55:55.496Z,100343.38
2022-10-20T20:58:23.652Z,100340.69
2022-10-20T21:00:51.560Z,100343.63
2022-10-20T21:03:20.125Z,100335.25
2022-10-20T21:05:47.852Z,100327.91
2022-10-20T21:08:15.552Z,100325.31
2022-10-20T21:10:44.461Z,100329.16
2022-10-20T21:13:14.770Z,100318.88
2022-10-20T21:15:42.417Z,100313.50
2022-10-20T21:18:10.061Z,100292.31
2022-10-20T21:20:37.650Z,100299.09
2022-10-20T21:23:05.279Z,100305.41
2022-10-20T21:25:32.951Z,100300.56
2022-10-20T21:28:01.905Z,100306.00
2022-10-20T21:32:57.114Z,100318.16
2022-10-20T21:35:25.032Z,100326.75
2022-10-20T21:37:52.624Z,100322.78
2022-10-20T21:40:20.237Z,100313.50
2022-10-20T21:42:47.810Z,100316.34
2022-10-20T21:45:19.047Z,100306.31
2022-10-20T21:47:46.904Z,100306.31
2022-10-20T21:50:14.540Z,100315.34
2022-10-20T21:52:42.169Z,100314.69
2022-10-20T21:55:10.137Z,100312.19
2022-10-20T21:57:37.901Z,100306.59
2022-10-20T22:00:06.795Z,100308.44
2022-10-20T22:02:36.470Z,100306.41
2022-10-20T22:05:04.679Z,100300.47
2022-10-20T22:07:32.570Z,100293.59
2022-10-20T22:10:00.133Z,100297.53
2022-10-20T22:12:27.784Z,100300.38
2022-10-20T22:14:55.375Z,100295.59
2022-10-20T22:17:22.971Z,100282.25
2022-10-20T22:19:51.997Z,100283.00
2022-10-20T22:22:19.577Z,100278.66
2022-10-20T22:24:47.196Z,100287.69
2022-10-20T22:27:25.172Z,100282.59
2022-10-20T22:30:02.452Z,100271.16
2022-10-20T22:32:30.148Z,100268.56
2022-10-20T22:34:59.166Z,100299.06
2022-10-20T22:37:26.714Z,100333.31
2022-10-20T22:39:54.433Z,100338.44
2022-10-20T22:42:24.118Z,100309.47
2022-10-20T22:44:52.600Z,100308.66
2022-10-20T22:47:20.296Z,100320.44
2022-10-20T22:49:47.865Z,100325.41
2022-10-20T22:52:16.769Z,100320.53
2022-10-20T22:54:44.510Z,100307.53
2022-10-20T22:57:12.087Z,100313.00
2022-10-20T22:59:39.659Z,100303.31
2022-10-20T23:02:07.242Z,100304.72
2022-10-20T23:04:34.822Z,100321.56
2022-10-20T23:09:36.483Z,100361.25
2022-10-20T23:12:04.357Z,100382.91
2022-10-20T23:14:31.911Z,100395.91
2022-10-20T23:16:59.596Z,100389.81
2022-10-20T23:19:27.228Z,100388.97
2022-10-20T23:21:54.829Z,100369.06
2022-10-20T23:24:22.582Z,100357.53
2022-10-20T23:26:51.619Z,100344.91
2022-10-20T23:29:19.215Z,100346.94
2022-10-20T23:31:46.855Z,100343.59
2022-10-20T23:34:14.469Z,100329.78
2022-10-20T23:36:42.097Z,100316.22
2022-10-20T23:39:09.748Z,100304.31
2022-10-20T23:41:37.343Z,100295.94
2022-10-20T23:44:14.583Z,100292.78
2022-10-20T23:46:42.226Z,100290.88
2022-10-20T23:49:13.300Z,100279.53
2022-10-20T23:51:40.920Z,100271.13
2022-10-20T23:54:08.500Z,100265.97
2022-10-20T23:56:36.271Z,100264.31
2022-10-20T23:59:04.278Z,100245.94
